Time;durP1;ratioP1;P1;durP2;ratioP2;P2;SDS_P1;SDS_P2;PMS_P1;PMS_P2;Temp;Humidity;BMP_temperature;BMP_pressure;BME280_temperature;BME280_humidity;BME280_pressure;Samples;Min_cycle;Max_cycle;Signal;HPM_P1;HPM_P2
2023/01/10 00:01:08;;;;;;;5.35;2.60;;;5.80;99.90;;;;;;5073403;28;20037;-78
2023/01/10 00:03:33;;;;;;;5.32;2.97;;;5.80;99.90;;;;;;5076057;28;20036;-78
2023/01/10 00:05:59;;;;;;;14.90;3.40;;;5.80;99.90;;;;;;5077659;28;20047;-78
2023/01/10 00:08:25;;;;;;;10.73;3.72;;;5.80;99.90;;;;;;5077698;28;20120;-78
2023/01/10 00:10:50;;;;;;;9.90;3.30;;;5.70;99.90;;;;;;5077393;28;20481;-79
2023/01/10 00:13:23;;;;;;;3.78;2.63;;;5.70;99.90;;;;;;5060611;28;20041;-78
2023/01/10 00:15:51;;;;;;;7.90;2.53;;;5.70;99.90;;;;;;5078099;28;20040;-78
2023/01/10 00:18:16;;;;;;;11.30;4.05;;;5.70;99.90;;;;;;5077071;28;20044;-78
2023/01/10 00:20:45;;;;;;;8.32;3.45;;;5.70;99.90;;;;;;5077408;28;20067;-78
2023/01/10 00:23:11;;;;;;;10.68;4.10;;;5.60;99.90;;;;;;5077358;28;20431;-78
2023/01/10 00:25:37;;;;;;;7.72;3.45;;;5.60;99.90;;;;;;5077461;28;20427;-78
2023/01/10 00:28:09;;;;;;;12.20;3.85;;;5.60;99.90;;;;;;5059496;28;20049;-78
2023/01/10 00:30:38;;;;;;;6.65;3.30;;;5.60;99.90;;;;;;5078071;28;20330;-77
2023/01/10 00:33:04;;;;;;;8.50;3.42;;;5.70;99.90;;;;;;5077555;28;20052;-78
2023/01/10 00:35:30;;;;;;;6.15;3.40;;;5.60;99.90;;;;;;5059046;28;20036;-78
2023/01/10 00:38:00;;;;;;;5.75;3.08;;;5.60;99.90;;;;;;5059106;28;20097;-78
2023/01/10 00:40:26;;;;;;;9.30;3.45;;;5.60;99.90;;;;;;5059665;28;20385;-77
2023/01/10 00:45:35;;;;;;;11.35;4.47;;;5.60;99.90;;;;;;5077993;28;20048;-77
2023/01/10 00:48:01;;;;;;;9.10;3.97;;;5.60;99.90;;;;;;5085480;28;20049;-78
2023/01/10 00:50:27;;;;;;;9.98;4.63;;;5.70;99.90;;;;;;5084766;28;20096;-77
2023/01/10 00:52:52;;;;;;;8.10;3.75;;;5.70;99.90;;;;;;5087447;28;20142;-77
2023/01/10 00:55:18;;;;;;;13.63;5.07;;;5.80;99.90;;;;;;5076406;28;20044;-77
2023/01/10 00:57:44;;;;;;;10.73;4.22;;;5.80;99.90;;;;;;5058607;28;20051;-76
2023/01/10 01:00:11;;;;;;;10.38;4.00;;;5.80;99.90;;;;;;5076510;28;20485;-77
2023/01/10 01:02:36;;;;;;;12.63;4.63;;;5.80;99.90;;;;;;5076593;28;20040;-77
2023/01/10 01:05:03;;;;;;;12.13;4.60;;;5.80;99.90;;;;;;5076929;28;20047;-77
2023/01/10 01:07:29;;;;;;;9.10;3.75;;;5.80;99.90;;;;;;5076621;28;20123;-78
2023/01/10 01:12:39;;;;;;;13.07;4.03;;;5.90;99.90;;;;;;5076075;28;20389;-77
2023/01/10 01:15:05;;;;;;;8.90;3.45;;;5.90;99.90;;;;;;5058212;28;20048;-77
2023/01/10 01:17:31;;;;;;;12.77;4.32;;;6.00;99.90;;;;;;5076657;28;20048;-77
2023/01/10 01:19:57;;;;;;;12.25;4.63;;;6.00;99.90;;;;;;5075884;28;20041;-77
2023/01/10 01:22:22;;;;;;;18.23;5.05;;;6.10;99.90;;;;;;5058485;28;20040;-78
2023/01/10 01:24:48;;;;;;;11.93;4.10;;;6.00;99.90;;;;;;5057973;28;20048;-78
2023/01/10 01:27:14;;;;;;;6.35;4.55;;;6.10;99.90;;;;;;5075304;28;20045;-78
2023/01/10 01:29:39;;;;;;;7.53;4.28;;;6.10;99.90;;;;;;5076230;28;20029;-78
2023/01/10 01:32:05;;;;;;;14.20;4.05;;;6.10;99.90;;;;;;5057919;28;20096;-79
2023/01/10 01:34:31;;;;;;;14.23;4.47;;;6.10;99.90;;;;;;5057767;28;20461;-78
2023/01/10 01:36:57;;;;;;;8.63;3.78;;;6.10;99.90;;;;;;5058114;28;20041;-78
2023/01/10 01:39:23;;;;;;;11.40;3.58;;;6.20;99.90;;;;;;5076138;28;20044;-78
2023/01/10 01:41:59;;;;;;;10.38;4.03;;;6.20;99.90;;;;;;5075584;28;20044;-77
2023/01/10 01:44:31;;;;;;;10.95;4.22;;;6.30;99.90;;;;;;5075536;28;20066;-77
2023/01/10 01:47:05;;;;;;;17.60;5.20;;;6.30;99.90;;;;;;5075544;28;20047;-77
2023/01/10 01:49:33;;;;;;;16.15;4.45;;;6.30;99.90;;;;;;5075911;28;20044;-77
2023/01/10 01:52:05;;;;;;;8.70;3.28;;;6.30;99.90;;;;;;5041261;28;20047;-77
2023/01/10 01:54:31;;;;;;;10.13;3.55;;;6.30;99.90;;;;;;5076059;28;20107;-77
2023/01/10 01:57:05;;;;;;;7.93;3.50;;;6.20;99.90;;;;;;5074712;28;20045;-77
2023/01/10 01:59:44;;;;;;;11.60;3.85;;;6.20;99.90;;;;;;5073566;28;20049;-77
2023/01/10 02:02:23;;;;;;;13.75;4.18;;;6.20;99.90;;;;;;5058199;28;20366;-77
2023/01/10 02:04:53;;;;;;;11.50;4.07;;;6.10;99.90;;;;;;5074397;28;20492;-77
2023/01/10 02:07:21;;;;;;;7.07;3.67;;;6.10;99.90;;;;;;5074815;28;20040;-78
2023/01/10 02:09:56;;;;;;;24.30;5.25;;;6.00;99.90;;;;;;5074972;28;20032;-78
2023/01/10 02:12:23;;;;;;;8.18;3.92;;;6.00;99.90;;;;;;5075779;28;20076;-77
2023/01/10 02:14:50;;;;;;;15.80;4.63;;;6.00;99.90;;;;;;5074252;28;20481;-77
2023/01/10 02:17:15;;;;;;;7.93;4.07;;;5.90;99.90;;;;;;5074196;28;20044;-77
2023/01/10 02:20:04;;;;;;;12.00;4.35;;;5.90;99.90;;;;;;5074187;28;20037;-78
2023/01/10 02:22:54;;;;;;;14.18;4.05;;;5.90;99.90;;;;;;5081235;28;20045;-76
2023/01/10 02:26:02;;;;;;;10.48;4.35;;;5.90;99.90;;;;;;5086687;28;20044;-76
2023/01/10 02:28:58;;;;;;;13.43;4.53;;;5.90;99.90;;;;;;5065487;28;20083;-78
2023/01/10 02:31:35;;;;;;;8.55;3.60;;;5.80;99.90;;;;;;5095994;28;20055;-76
2023/01/10 02:34:39;;;;;;;19.63;4.32;;;5.80;99.90;;;;;;5096098;28;20104;-76
2023/01/10 02:37:43;;;;;;;7.50;3.60;;;5.70;99.90;;;;;;5074624;28;20137;-77
2023/01/10 02:40:15;;;;;;;;;;;5.70;99.90;;;;;;4993416;28;20042;-78
2023/01/10 02:42:59;;;;;;;13.30;4.90;;;5.70;99.90;;;;;;5042990;28;20370;-77
2023/01/10 02:45:28;;;;;;;9.05;3.50;;;5.70;99.90;;;;;;5074394;28;20412;-78
2023/01/10 02:47:55;;;;;;;10.15;3.80;;;5.70;99.90;;;;;;5057438;28;20123;-78
2023/01/10 02:50:29;;;;;;;9.57;3.53;;;5.80;99.90;;;;;;5062467;28;20115;-78
2023/01/10 02:52:58;;;;;;;11.98;4.13;;;5.70;99.90;;;;;;5074289;28;20036;-78
2023/01/10 02:55:34;;;;;;;7.32;3.58;;;5.80;99.90;;;;;;5056795;28;20054;-78
2023/01/10 02:58:10;;;;;;;8.88;3.30;;;5.80;99.90;;;;;;5078839;28;20059;-77
2023/01/10 03:00:47;;;;;;;11.38;3.92;;;5.90;99.90;;;;;;5077180;28;20373;-77
2023/01/10 03:03:32;;;;;;;11.00;3.80;;;5.90;99.90;;;;;;5076206;28;20040;-77
2023/01/10 03:06:14;;;;;;;15.75;5.50;;;5.90;99.90;;;;;;5075042;28;20469;-78
2023/01/10 03:08:58;;;;;;;7.88;3.65;;;5.90;99.90;;;;;;5074065;28;20036;-77
2023/01/10 03:11:40;;;;;;;8.82;4.70;;;5.90;99.90;;;;;;5056278;28;20043;-77
2023/01/10 03:14:16;;;;;;;10.80;4.05;;;5.90;99.90;;;;;;5073895;28;20044;-77
2023/01/10 03:16:52;;;;;;;7.15;3.58;;;5.90;99.90;;;;;;5074155;28;20091;-78
2023/01/10 03:19:23;;;;;;;9.70;3.92;;;5.90;99.90;;;;;;5074560;28;20071;-77
2023/01/10 03:21:54;;;;;;;11.40;4.22;;;5.90;99.90;;;;;;5073488;28;20097;-78
2023/01/10 03:24:32;;;;;;;9.68;3.97;;;5.90;99.90;;;;;;5074310;28;20045;-77
2023/01/10 03:27:05;;;;;;;7.93;3.42;;;5.90;99.90;;;;;;5074452;28;20052;-77
2023/01/10 03:29:42;;;;;;;12.65;4.65;;;5.90;99.90;;;;;;5056801;28;20044;-77
2023/01/10 03:32:10;;;;;;;8.10;3.95;;;5.90;99.90;;;;;;5074612;28;20045;-75
2023/01/10 03:34:37;;;;;;;7.90;3.28;;;5.80;99.90;;;;;;5073942;28;20037;-77
2023/01/10 03:37:40;;;;;;;9.95;3.15;;;5.90;99.90;;;;;;5073879;28;20098;-78
2023/01/10 03:40:08;;;;;;;9.48;3.70;;;5.90;99.90;;;;;;5077861;28;20123;-77
2023/01/10 03:45:42;;;;;;;6.97;3.53;;;6.00;99.90;;;;;;5078581;28;20045;-77
2023/01/10 03:48:12;;;;;;;8.90;3.53;;;5.90;99.90;;;;;;5078669;28;20110;-76
2023/01/10 03:50:39;;;;;;;15.70;3.72;;;5.90;99.90;;;;;;5087232;28;20044;-77
2023/01/10 03:53:05;;;;;;;6.90;3.00;;;5.90;99.90;;;;;;5083312;28;20162;-77
2023/01/10 03:55:33;;;;;;;9.93;4.03;;;6.00;99.90;;;;;;5100904;28;20045;-77
2023/01/10 03:57:59;;;;;;;10.55;3.97;;;6.00;99.90;;;;;;5082208;28;20048;-77
2023/01/10 04:00:25;;;;;;;11.73;4.03;;;6.10;99.90;;;;;;5080985;28;20089;-77
2023/01/10 04:02:51;;;;;;;10.00;4.68;;;6.10;99.90;;;;;;5077563;28;20036;-77
2023/01/10 04:05:16;;;;;;;10.35;4.72;;;6.10;99.90;;;;;;5077252;28;20037;-77
2023/01/10 04:07:42;;;;;;;7.88;3.38;;;6.20;99.90;;;;;;5076815;28;20054;-78
2023/01/10 04:10:08;;;;;;;6.53;3.50;;;6.20;99.90;;;;;;5076856;28;20055;-78
2023/01/10 04:12:34;;;;;;;8.95;3.35;;;6.20;99.90;;;;;;5077266;28;20355;-77
2023/01/10 04:15:00;;;;;;;8.93;3.75;;;6.10;99.90;;;;;;5076621;28;20123;-78
2023/01/10 04:17:26;;;;;;;14.13;4.20;;;6.10;99.90;;;;;;5076912;28;20045;-77
2023/01/10 04:19:52;;;;;;;12.15;4.07;;;6.10;99.90;;;;;;5077554;28;20040;-77
2023/01/10 04:22:17;;;;;;;9.00;3.63;;;6.10;99.90;;;;;;5076279;28;20477;-77
2023/01/10 04:24:43;;;;;;;10.50;4.28;;;6.00;99.90;;;;;;5076187;28;20040;-77
2023/01/10 04:27:09;;;;;;;13.88;4.47;;;6.00;99.90;;;;;;5059516;28;20076;-77
2023/01/10 04:29:35;;;;;;;7.90;4.00;;;5.90;99.90;;;;;;5059349;28;20051;-78
2023/01/10 04:32:00;;;;;;;14.88;4.07;;;5.90;99.90;;;;;;5077232;28;20441;-78
2023/01/10 04:34:26;;;;;;;9.35;4.05;;;5.80;99.90;;;;;;5058536;28;20036;-77
2023/01/10 04:36:52;;;;;;;11.75;5.20;;;5.80;99.90;;;;;;5076690;28;20131;-77
2023/01/10 04:39:17;;;;;;;11.20;4.50;;;5.80;99.90;;;;;;5076906;28;20098;-78
2023/01/10 04:41:43;;;;;;;13.45;3.90;;;5.70;99.90;;;;;;5060012;28;20051;-78
2023/01/10 04:44:09;;;;;;;10.52;4.97;;;5.80;99.90;;;;;;5076829;28;20037;-77
2023/01/10 04:46:34;;;;;;;6.35;3.97;;;5.80;99.90;;;;;;5059275;28;20059;-78
2023/01/10 04:49:00;;;;;;;9.90;4.40;;;5.80;99.90;;;;;;5075976;28;20123;-77
2023/01/10 04:51:27;;;;;;;14.38;4.78;;;5.80;99.90;;;;;;5059084;28;20067;-77
2023/01/10 04:53:54;;;;;;;11.38;5.22;;;5.80;99.90;;;;;;5076171;28;20044;-77
2023/01/10 04:56:21;;;;;;;12.98;4.45;;;5.80;99.90;;;;;;5076290;28;20473;-78
2023/01/10 04:58:48;;;;;;;11.57;4.20;;;5.90;99.90;;;;;;5076158;28;20496;-77
2023/01/10 05:01:17;;;;;;;8.23;4.05;;;5.80;99.90;;;;;;5076193;28;20062;-78
2023/01/10 05:03:45;;;;;;;10.15;3.85;;;5.80;99.90;;;;;;5076108;28;20079;-78
2023/01/10 05:06:11;;;;;;;9.73;4.40;;;5.90;99.90;;;;;;5076038;28;20358;-78
2023/01/10 05:08:37;;;;;;;13.45;4.28;;;5.90;99.90;;;;;;5077217;28;20036;-78
2023/01/10 05:11:02;;;;;;;16.15;4.53;;;5.90;99.90;;;;;;5077896;28;20119;-78
2023/01/10 05:13:28;;;;;;;12.25;5.18;;;5.90;99.90;;;;;;5076391;28;20369;-77
2023/01/10 05:15:56;;;;;;;14.10;4.10;;;6.00;99.90;;;;;;5076399;28;20123;-77
2023/01/10 05:18:23;;;;;;;14.23;4.07;;;6.10;99.90;;;;;;5076746;28;20044;-78
2023/01/10 05:20:49;;;;;;;13.88;5.40;;;6.10;99.90;;;;;;5075928;28;20041;-78
2023/01/10 05:23:14;;;;;;;8.48;4.32;;;6.10;99.90;;;;;;5076159;28;20040;-77
2023/01/10 05:25:40;;;;;;;7.53;5.72;;;6.10;99.90;;;;;;5070336;28;20058;-77
2023/01/10 05:28:06;;;;;;;10.18;5.28;;;6.10;99.90;;;;;;5078839;28;20072;-78
2023/01/10 05:30:31;;;;;;;10.73;4.82;;;6.20;99.90;;;;;;5075713;28;20040;-78
2023/01/10 05:32:57;;;;;;;10.75;4.63;;;6.10;99.90;;;;;;5075362;28;20424;-77
2023/01/10 05:35:23;;;;;;;15.07;4.78;;;6.10;99.90;;;;;;5057595;28;20040;-76
2023/01/10 05:37:48;;;;;;;9.57;4.97;;;6.10;99.90;;;;;;5075284;28;20091;-77
2023/01/10 05:40:14;;;;;;;12.65;6.05;;;6.10;99.90;;;;;;5060301;28;20044;-77
2023/01/10 05:42:41;;;;;;;8.82;4.38;;;6.10;99.90;;;;;;5075262;28;20462;-77
2023/01/10 05:45:07;;;;;;;10.65;5.10;;;6.10;99.90;;;;;;5075345;28;20044;-76
2023/01/10 05:47:33;;;;;;;13.80;5.20;;;6.20;99.90;;;;;;5075233;28;20155;-76
2023/01/10 05:49:58;;;;;;;10.48;5.65;;;6.20;99.90;;;;;;5075218;28;20127;-78
2023/01/10 05:52:24;;;;;;;11.23;5.57;;;6.20;99.90;;;;;;5075320;28;20063;-77
2023/01/10 05:54:49;;;;;;;9.82;5.65;;;6.30;99.90;;;;;;5075295;28;20040;-77
2023/01/10 05:57:15;;;;;;;9.82;6.47;;;6.20;99.90;;;;;;5057960;28;20045;-77
2023/01/10 05:59:41;;;;;;;12.05;5.15;;;6.30;99.90;;;;;;5056893;28;20127;-77
2023/01/10 06:02:07;;;;;;;11.32;5.18;;;6.30;99.90;;;;;;5057323;28;20476;-77
2023/01/10 06:04:32;;;;;;;12.02;5.07;;;6.30;99.90;;;;;;5057694;28;20090;-77
2023/01/10 06:06:58;;;;;;;14.10;5.25;;;6.40;99.90;;;;;;5057193;28;20058;-77
2023/01/10 06:09:24;;;;;;;13.98;4.90;;;6.40;99.90;;;;;;5076676;28;20119;-76
2023/01/10 06:11:49;;;;;;;14.45;5.40;;;6.40;99.90;;;;;;5056678;28;20037;-76
2023/01/10 06:14:18;;;;;;;9.48;4.97;;;6.50;99.90;;;;;;5075316;28;20047;-75
2023/01/10 06:16:44;;;;;;;12.57;4.15;;;6.50;99.90;;;;;;5057346;28;20419;-75
2023/01/10 06:19:10;;;;;;;11.25;3.75;;;6.50;99.90;;;;;;5074558;28;20516;-76
2023/01/10 06:21:36;;;;;;;14.43;4.97;;;6.50;99.90;;;;;;5075158;28;20076;-76
2023/01/10 06:24:02;;;;;;;10.38;4.22;;;6.50;99.90;;;;;;5074617;28;20048;-75
2023/01/10 06:26:28;;;;;;;10.68;4.28;;;6.50;99.90;;;;;;5074456;28;20046;-76
2023/01/10 06:28:54;;;;;;;15.88;4.75;;;6.50;99.90;;;;;;5056865;28;20044;-76
2023/01/10 06:31:19;;;;;;;9.43;4.18;;;6.50;99.90;;;;;;5057262;28;20048;-75
2023/01/10 06:33:45;;;;;;;10.02;4.30;;;6.50;99.90;;;;;;5039470;28;20044;-76
2023/01/10 06:36:11;;;;;;;11.55;3.67;;;6.50;99.90;;;;;;5074418;28;20474;-76
2023/01/10 06:38:37;;;;;;;9.35;4.15;;;6.40;99.90;;;;;;5074840;28;20055;-76
2023/01/10 06:41:11;;;;;;;10.88;3.83;;;6.50;99.90;;;;;;5074996;28;20036;-76
2023/01/10 06:43:42;;;;;;;13.85;4.07;;;6.50;99.90;;;;;;5074304;28;20040;-75
2023/01/10 06:46:08;;;;;;;7.13;3.80;;;6.50;99.90;;;;;;5074581;28;20094;-75
2023/01/10 06:48:37;;;;;;;7.18;3.10;;;6.50;99.90;;;;;;5057060;28;20414;-75
2023/01/10 06:51:04;;;;;;;6.13;3.13;;;6.50;99.90;;;;;;5074062;28;20040;-75
2023/01/10 06:53:30;;;;;;;6.38;3.30;;;6.50;99.90;;;;;;5074029;28;20128;-75
2023/01/10 06:55:56;;;;;;;7.93;3.58;;;6.50;99.90;;;;;;5073749;28;20098;-75
2023/01/10 06:58:23;;;;;;;8.82;3.40;;;6.50;99.90;;;;;;5072694;28;20048;-75
2023/01/10 07:00:49;;;;;;;7.35;3.28;;;6.40;99.90;;;;;;5073866;28;20036;-75
2023/01/10 07:03:14;;;;;;;11.80;4.47;;;6.50;99.90;;;;;;5056614;28;20437;-75
2023/01/10 07:05:40;;;;;;;18.95;4.68;;;6.30;99.90;;;;;;5073877;28;20036;-75
2023/01/10 07:08:06;;;;;;;8.77;3.90;;;6.30;99.90;;;;;;5073913;28;20083;-76
2023/01/10 07:10:32;;;;;;;10.05;3.92;;;6.30;99.90;;;;;;5055951;28;20434;-75
2023/01/10 07:12:58;;;;;;;11.10;4.20;;;6.30;99.90;;;;;;5056769;28;20044;-76
2023/01/10 07:15:28;;;;;;;10.23;3.95;;;6.20;99.90;;;;;;5073297;28;20097;-77
2023/01/10 07:17:57;;;;;;;11.32;4.78;;;6.20;99.90;;;;;;5074362;28;20036;-75
2023/01/10 07:20:23;;;;;;;9.65;3.67;;;6.20;99.90;;;;;;5073387;28;20381;-76
2023/01/10 07:22:56;;;;;;;8.35;3.88;;;6.30;99.90;;;;;;5073782;28;20092;-75
2023/01/10 07:25:24;;;;;;;11.05;3.85;;;6.30;99.90;;;;;;5055723;28;20040;-75
2023/01/10 07:27:49;;;;;;;11.50;4.28;;;6.30;99.90;;;;;;5056163;28;20382;-74
2023/01/10 07:30:15;;;;;;;11.77;5.38;;;6.40;99.90;;;;;;5073660;28;20032;-74
2023/01/10 07:32:41;;;;;;;11.18;4.35;;;6.40;99.90;;;;;;5073708;28;20044;-74
2023/01/10 07:35:07;;;;;;;12.02;4.22;;;6.40;99.90;;;;;;5074339;28;20046;-73
2023/01/10 07:37:33;;;;;;;20.65;6.40;;;6.50;99.90;;;;;;5073816;28;20047;-76
2023/01/10 07:39:59;;;;;;;14.00;5.72;;;6.50;99.90;;;;;;5084136;28;20036;-75
2023/01/10 07:42:24;;;;;;;14.05;5.38;;;6.50;99.90;;;;;;5082066;28;20037;-75
2023/01/10 07:44:50;;;;;;;14.88;6.03;;;6.50;99.90;;;;;;5076704;28;20055;-75
2023/01/10 07:47:16;;;;;;;18.15;5.65;;;6.50;99.90;;;;;;5073371;28;20047;-73
2023/01/10 07:49:41;;;;;;;16.60;5.72;;;6.50;99.90;;;;;;5073502;28;20039;-74
2023/01/10 07:52:08;;;;;;;15.40;5.75;;;6.50;99.90;;;;;;5074016;28;20040;-75
2023/01/10 07:54:34;;;;;;;17.88;5.65;;;6.50;99.90;;;;;;5073693;28;20048;-75
2023/01/10 07:57:00;;;;;;;14.50;6.18;;;6.50;99.90;;;;;;5038976;28;20098;-75
2023/01/10 07:59:26;;;;;;;12.98;6.68;;;6.50;99.90;;;;;;5073124;28;20055;-74
2023/01/10 08:01:52;;;;;;;15.48;6.28;;;6.40;99.90;;;;;;5073856;28;20123;-75
2023/01/10 08:04:19;;;;;;;14.93;5.80;;;6.50;99.90;;;;;;5073206;28;20124;-75
2023/01/10 08:06:44;;;;;;;18.85;6.30;;;6.40;99.90;;;;;;5072315;28;20464;-75
2023/01/10 08:09:10;;;;;;;13.80;6.78;;;6.50;99.90;;;;;;5073390;28;20119;-75
2023/01/10 08:11:36;;;;;;;21.73;7.13;;;6.40;99.90;;;;;;5055561;28;20043;-74
2023/01/10 08:14:02;;;;;;;11.98;5.72;;;6.40;99.90;;;;;;5073305;28;20132;-74
2023/01/10 08:16:27;;;;;;;14.40;5.90;;;6.50;99.90;;;;;;5074082;28;20044;-75
2023/01/10 08:18:53;;;;;;;15.60;6.90;;;6.40;99.90;;;;;;5073171;28;20044;-74
2023/01/10 08:21:19;;;;;;;15.13;6.07;;;6.50;99.90;;;;;;5073065;28;20063;-73
2023/01/10 08:23:44;;;;;;;18.15;6.95;;;6.50;99.90;;;;;;5056342;28;20063;-74
2023/01/10 08:26:10;;;;;;;19.27;8.20;;;6.40;99.90;;;;;;5077140;28;20047;-74
2023/01/10 08:28:36;;;;;;;11.70;6.07;;;6.40;99.90;;;;;;5076836;28;20086;-74
2023/01/10 08:31:08;;;;;;;20.63;7.60;;;6.40;99.90;;;;;;5076433;28;20409;-75
2023/01/10 08:33:37;;;;;;;17.13;6.45;;;6.40;99.90;;;;;;5076874;28;20063;-75
2023/01/10 08:36:03;;;;;;;17.90;6.75;;;6.50;99.90;;;;;;5076762;28;20044;-75
2023/01/10 08:38:28;;;;;;;12.90;5.43;;;6.50;99.90;;;;;;5077529;28;20193;-75
2023/01/10 08:40:57;;;;;;;14.13;5.60;;;6.50;99.90;;;;;;5077691;28;20492;-74
2023/01/10 08:43:23;;;;;;;13.88;5.47;;;6.60;99.90;;;;;;5076366;28;20048;-75
2023/01/10 08:45:49;;;;;;;17.60;6.10;;;6.60;99.90;;;;;;5076557;28;20044;-74
2023/01/10 08:48:14;;;;;;;13.70;6.75;;;6.50;99.90;;;;;;5042073;28;20426;-74
2023/01/10 08:50:40;;;;;;;11.80;5.78;;;6.50;99.90;;;;;;5066828;28;20037;-75
2023/01/10 08:53:06;;;;;;;14.40;6.20;;;6.50;99.90;;;;;;5055284;28;20128;-74
2023/01/10 08:55:34;;;;;;;14.65;5.35;;;6.40;99.90;;;;;;5056493;28;20060;-74
2023/01/10 08:58:01;;;;;;;14.93;6.53;;;6.40;99.90;;;;;;5055601;28;20048;-75
2023/01/10 09:00:27;;;;;;;17.95;5.35;;;6.40;99.90;;;;;;5039106;28;20431;-75
2023/01/10 09:02:53;;;;;;;18.92;6.20;;;6.40;99.90;;;;;;5056686;28;20045;-75
2023/01/10 09:05:19;;;;;;;18.67;8.32;;;6.50;99.90;;;;;;5068216;28;20490;-76
2023/01/10 09:07:45;;;;;;;14.38;5.88;;;6.60;99.90;;;;;;5058139;28;20120;-75
2023/01/10 09:10:11;;;;;;;13.35;6.05;;;6.60;99.90;;;;;;5055893;28;20037;-75
2023/01/10 09:12:55;;;;;;;10.52;5.40;;;6.60;99.90;;;;;;5056246;28;20090;-75
2023/01/10 09:15:23;;;;;;;14.05;5.38;;;6.70;99.90;;;;;;5055277;28;20048;-75
2023/01/10 09:17:51;;;;;;;12.20;6.32;;;6.80;99.90;;;;;;5064984;28;20115;-76
2023/01/10 09:20:17;;;;;;;9.98;5.00;;;6.90;99.90;;;;;;5062392;28;20037;-75
2023/01/10 09:22:43;;;;;;;13.40;6.15;;;7.00;99.90;;;;;;5055568;28;20048;-75
2023/01/10 09:25:10;;;;;;;11.30;5.88;;;7.10;99.90;;;;;;5055701;28;20054;-75
2023/01/10 09:27:35;;;;;;;9.00;5.88;;;7.10;99.90;;;;;;5038800;28;20046;-75
2023/01/10 09:30:02;;;;;;;12.38;6.22;;;7.10;99.90;;;;;;5055478;28;20424;-74
2023/01/10 09:32:28;;;;;;;12.73;6.78;;;7.20;99.90;;;;;;5037608;28;20048;-75
2023/01/10 09:34:53;;;;;;;9.70;4.93;;;7.20;99.90;;;;;;5055240;28;20076;-75
2023/01/10 09:37:19;;;;;;;13.57;5.50;;;7.20;99.90;;;;;;5054984;28;20056;-75
2023/01/10 09:39:45;;;;;;;12.60;4.70;;;7.20;99.90;;;;;;5037054;28;20055;-75
2023/01/10 09:42:47;;;;;;;8.93;4.72;;;7.20;99.90;;;;;;5054405;28;20045;-75
2023/01/10 09:45:20;;;;;;;18.77;5.78;;;7.30;99.90;;;;;;5053232;28;20064;-75
2023/01/10 09:47:59;;;;;;;8.73;4.45;;;7.30;99.90;;;;;;5064358;28;20045;-76
2023/01/10 09:50:37;;;;;;;8.60;4.65;;;7.30;99.90;;;;;;5055883;28;20043;-76
2023/01/10 09:53:12;;;;;;;21.60;5.22;;;7.40;99.90;;;;;;5054957;28;20045;-76
2023/01/10 09:55:38;;;;;;;16.92;5.18;;;7.40;99.90;;;;;;5054743;28;20052;-75
2023/01/10 09:58:16;;;;;;;18.83;6.78;;;7.40;99.90;;;;;;5055139;28;20049;-75
2023/01/10 10:00:44;;;;;;;15.27;5.30;;;7.50;99.90;;;;;;5059702;28;20496;-75
2023/01/10 10:03:36;;;;;;;9.20;5.70;;;7.50;99.90;;;;;;5037614;28;20060;-75
2023/01/10 10:06:03;;;;;;;15.52;5.15;;;7.50;99.90;;;;;;5054946;28;20044;-75
2023/01/10 10:08:29;;;;;;;10.98;4.55;;;7.50;99.90;;;;;;5036932;28;20127;-75
2023/01/10 10:10:57;;;;;;;9.73;4.53;;;7.50;99.90;;;;;;5053904;28;20033;-75
2023/01/10 10:13:42;;;;;;;11.32;4.07;;;7.50;99.90;;;;;;5054837;28;20090;-74
2023/01/10 10:16:24;;;;;;;13.73;5.95;;;7.50;99.90;;;;;;5066477;28;20045;-75
2023/01/10 10:19:08;;;;;;;12.25;4.90;;;7.60;99.90;;;;;;5054647;28;20041;-74
2023/01/10 10:21:49;;;;;;;16.77;5.90;;;7.50;99.90;;;;;;5054602;28;20443;-74
2023/01/10 10:24:36;;;;;;;9.18;5.13;;;7.50;99.90;;;;;;5055156;28;20083;-76
2023/01/10 10:27:21;;;;;;;20.77;5.78;;;7.60;99.90;;;;;;5055077;28;20040;-71
2023/01/10 10:29:55;;;;;;;10.65;5.05;;;7.60;99.90;;;;;;5055125;28;20041;-76
2023/01/10 10:32:35;;;;;;;12.00;4.43;;;7.60;99.90;;;;;;5037327;28;20443;-77
2023/01/10 10:35:20;;;;;;;10.43;4.85;;;7.60;99.90;;;;;;5037412;28;20056;-76
2023/01/10 10:37:50;;;;;;;12.90;5.18;;;7.60;99.90;;;;;;5054480;28;20559;-76
2023/01/10 10:40:22;;;;;;;10.80;4.53;;;7.60;99.90;;;;;;5037053;28;20132;-76
2023/01/10 10:42:51;;;;;;;14.52;4.22;;;7.60;99.90;;;;;;5054229;28;20045;-76
2023/01/10 10:45:19;;;;;;;11.65;5.20;;;7.70;99.90;;;;;;5053310;28;20044;-76
2023/01/10 10:47:54;;;;;;;10.68;4.03;;;7.60;99.90;;;;;;5053746;28;20067;-76
2023/01/10 10:50:30;;;;;;;14.68;5.13;;;7.70;99.90;;;;;;5054725;28;20441;-76
2023/01/10 10:52:56;;;;;;;8.88;4.78;;;7.70;99.90;;;;;;5054522;28;20048;-76
2023/01/10 10:55:30;;;;;;;17.83;6.85;;;7.70;99.90;;;;;;5054339;28;20390;-76
2023/01/10 10:57:55;;;;;;;;;;;7.80;99.90;;;;;;5054355;28;20098;-75
2023/01/10 11:00:22;;;;;;;12.85;5.13;;;7.70;99.90;;;;;;5037249;28;19916;-75
2023/01/10 11:02:56;;;;;;;12.23;4.82;;;7.80;99.90;;;;;;5053885;28;20037;-75
2023/01/10 11:05:35;;;;;;;11.75;5.68;;;7.80;99.90;;;;;;5054445;28;20044;-75
2023/01/10 11:08:09;;;;;;;16.88;5.00;;;7.90;99.90;;;;;;5053478;28;20094;-76
2023/01/10 11:10:34;;;;;;;;;;;7.90;99.90;;;;;;5037074;28;20037;-76
2023/01/10 11:13:23;;;;;;;13.80;6.13;;;7.90;99.90;;;;;;5053889;28;20246;-76
2023/01/10 11:15:50;;;;;;;15.30;5.57;;;7.90;99.90;;;;;;5033031;28;20561;-75
2023/01/10 11:18:21;;;;;;;9.80;6.30;;;7.90;99.90;;;;;;5035833;28;20083;-75
2023/01/10 11:21:00;;;;;;;13.73;6.15;;;8.00;99.90;;;;;;5053327;28;20037;-75
2023/01/10 11:23:52;;;;;;;12.05;6.60;;;8.00;99.90;;;;;;5035821;28;20382;-75
2023/01/10 11:26:34;;;;;;;10.93;6.97;;;8.00;99.90;;;;;;5036065;28;20068;-75
2023/01/10 11:29:15;;;;;;;16.77;7.25;;;8.00;99.90;;;;;;5054232;28;20037;-75
2023/01/10 11:31:41;;;;;;;17.67;7.47;;;8.00;99.90;;;;;;5054307;28;20080;-75
2023/01/10 11:34:28;;;;;;;19.88;7.60;;;8.00;99.90;;;;;;5052911;28;20462;-75
2023/01/10 11:36:55;;;;;;;19.27;8.85;;;8.00;99.90;;;;;;5054192;28;20132;-75
2023/01/10 11:39:21;;;;;;;23.60;9.63;;;8.00;99.90;;;;;;5053881;28;20469;-76
2023/01/10 11:41:48;;;;;;;16.52;8.23;;;8.00;99.90;;;;;;5035856;28;20048;-76
2023/01/10 11:44:26;;;;;;;18.30;8.60;;;8.00;99.90;;;;;;5053820;28;20044;-76
2023/01/10 11:47:02;;;;;;;20.63;9.00;;;8.00;99.90;;;;;;5053214;28;20440;-76
2023/01/10 11:49:39;;;;;;;20.00;8.15;;;7.90;99.90;;;;;;5052719;28;20053;-76
2023/01/10 11:52:27;;;;;;;15.23;9.05;;;8.00;99.90;;;;;;5053604;28;20045;-75
2023/01/10 11:54:58;;;;;;;18.67;8.57;;;8.00;99.90;;;;;;5053464;28;20052;-76
2023/01/10 11:57:28;;;;;;;13.95;7.50;;;8.00;99.90;;;;;;5053399;28;20453;-76
2023/01/10 12:00:05;;;;;;;13.57;9.00;;;8.00;99.90;;;;;;5022618;28;20048;-75
2023/01/10 12:02:42;;;;;;;18.75;8.75;;;8.00;99.90;;;;;;5057098;28;20037;-74
2023/01/10 12:05:16;;;;;;;16.40;7.15;;;8.00;99.90;;;;;;5056990;28;20055;-74
2023/01/10 12:08:01;;;;;;;16.40;8.25;;;8.00;99.90;;;;;;5057556;28;20049;-75
2023/01/10 12:10:28;;;;;;;18.88;7.30;;;8.00;99.90;;;;;;5056975;28;20037;-75
2023/01/10 12:12:58;;;;;;;15.57;6.97;;;7.90;99.90;;;;;;5056719;28;20466;-74
2023/01/10 12:15:26;;;;;;;10.93;6.88;;;8.00;99.90;;;;;;5057692;28;20045;-75
2023/01/10 12:17:55;;;;;;;14.45;7.85;;;8.00;99.90;;;;;;5056958;28;20114;-75
2023/01/10 12:20:22;;;;;;;17.88;6.88;;;8.00;99.90;;;;;;5038808;28;20132;-75
2023/01/10 12:22:56;;;;;;;15.77;8.82;;;7.90;99.90;;;;;;5056732;28;20052;-75
2023/01/10 12:25:43;;;;;;;10.13;6.20;;;7.90;99.90;;;;;;5056506;28;20037;-75
2023/01/10 12:28:24;;;;;;;11.48;6.43;;;7.80;99.90;;;;;;5040007;28;20048;-75
2023/01/10 12:30:53;;;;;;;19.23;6.05;;;7.80;99.90;;;;;;5056556;28;20077;-75
2023/01/10 12:33:23;;;;;;;14.23;5.25;;;7.80;99.90;;;;;;5056104;28;20061;-75
2023/01/10 12:35:57;;;;;;;20.10;7.85;;;7.80;99.90;;;;;;5056425;28;20110;-75
2023/01/10 12:44:40;;;;;;;11.98;5.53;;;7.90;99.90;;;;;;5056425;28;20140;-75
2023/01/10 12:47:17;;;;;;;15.90;5.50;;;7.90;99.90;;;;;;5050374;28;20057;-75
2023/01/10 12:49:58;;;;;;;10.73;5.45;;;7.90;99.90;;;;;;5055996;28;20053;-74
2023/01/10 12:52:44;;;;;;;14.55;6.45;;;7.90;99.90;;;;;;5055992;28;20466;-75
2023/01/10 12:55:18;;;;;;;11.65;4.97;;;7.90;99.90;;;;;;5055174;28;20060;-75
2023/01/10 12:57:47;;;;;;;10.48;5.30;;;7.90;99.90;;;;;;5055939;28;20052;-75
2023/01/10 13:00:40;;;;;;;13.40;5.53;;;7.90;99.90;;;;;;5054648;28;20045;-72
2023/01/10 13:03:12;;;;;;;11.43;5.88;;;7.90;99.90;;;;;;5055519;28;20051;-75
2023/01/10 13:05:38;;;;;;;10.63;5.57;;;7.90;99.90;;;;;;5055439;28;20199;-75
2023/01/10 13:08:11;;;;;;;18.58;6.65;;;7.90;99.90;;;;;;5055641;28;20052;-76
2023/01/10 13:10:44;;;;;;;16.92;5.88;;;7.80;99.90;;;;;;5055661;28;20044;-75
2023/01/10 13:13:34;;;;;;;12.10;5.40;;;7.80;99.90;;;;;;5056281;28;20041;-76
2023/01/10 13:16:11;;;;;;;11.73;5.78;;;7.80;99.90;;;;;;5056155;28;20330;-76
2023/01/10 13:18:56;;;;;;;13.77;5.55;;;7.70;99.90;;;;;;5055231;28;20458;-75
2023/01/10 13:21:22;;;;;;;10.73;6.72;;;7.70;99.90;;;;;;5056159;28;20051;-77